createdAt,value
2018-12-21T00:00:30.386Z,96882.79
2018-12-21T00:02:56.286Z,96884.80
2018-12-21T00:05:22.165Z,96889.05
2018-12-21T00:07:48.063Z,96884.59
2018-12-21T00:10:13.937Z,96878.38
2018-12-21T00:12:39.809Z,96877.91
2018-12-21T00:15:06.230Z,96873.25
2018-12-21T00:17:34.754Z,96880.53
2018-12-21T00:20:07.170Z,96874.54
2018-12-21T00:22:33.037Z,96870.32
2018-12-21T00:24:58.879Z,96868.48
2018-12-21T00:27:24.729Z,96868.17
2018-12-21T00:29:50.562Z,96866.36
2018-12-21T00:32:22.417Z,96862.16
2018-12-21T00:34:54.562Z,96862.41
2018-12-21T00:37:26.648Z,96866.34
2018-12-21T00:39:58.703Z,96871.52
2018-12-21T00:42:29.462Z,96868.85
2018-12-21T00:44:57.399Z,96873.81
2018-12-21T00:47:23.262Z,96870.94
2018-12-21T00:49:49.096Z,96867.31
2018-12-21T00:52:14.942Z,96867.80
2018-12-21T00:54:40.779Z,96867.27
2018-12-21T00:57:06.651Z,96875.13
2018-12-21T00:59:32.510Z,96867.52
2018-12-21T01:01:58.438Z,96872.20
2018-12-21T01:04:24.318Z,96875.09
2018-12-21T01:06:50.288Z,96869.13
2018-12-21T01:09:16.150Z,96872.46
2018-12-21T01:11:42.011Z,96876.14
2018-12-21T01:14:07.971Z,96870.38
2018-12-21T01:16:33.823Z,96874.56
2018-12-21T01:18:59.718Z,96869.86
2018-12-21T01:21:25.601Z,96872.19
2018-12-21T01:23:51.562Z,96872.97
2018-12-21T01:26:17.433Z,96875.61
2018-12-21T01:28:43.433Z,96877.67
2018-12-21T01:31:09.478Z,96881.86
2018-12-21T01:33:35.372Z,96876.14
2018-12-21T01:36:02.012Z,96882.40
2018-12-21T01:38:27.863Z,96875.35
2018-12-21T01:40:53.750Z,96881.10
2018-12-21T01:43:19.621Z,96878.73
2018-12-21T01:45:45.488Z,96881.63
2018-12-21T01:48:11.358Z,96882.16
2018-12-21T01:50:37.291Z,96876.92
2018-12-21T01:53:03.164Z,96875.36
2018-12-21T01:55:29.039Z,96879.02
2018-12-21T01:57:54.874Z,96872.74
2018-12-21T02:00:20.757Z,96871.94
2018-12-21T02:02:46.614Z,96870.88
2018-12-21T02:05:12.433Z,96873.52
2018-12-21T02:07:38.286Z,96866.72
2018-12-21T02:10:05.427Z,96864.12
2018-12-21T02:12:31.522Z,96865.69
2018-12-21T02:14:57.364Z,96859.36
2018-12-21T02:17:23.253Z,96852.30
2018-12-21T02:19:49.098Z,96845.07
2018-12-21T02:22:14.994Z,96848.74
2018-12-21T02:24:40.846Z,96837.47
2018-12-21T02:27:06.733Z,96841.16
2018-12-21T02:29:32.572Z,96841.16
2018-12-21T02:31:58.506Z,96842.97
2018-12-21T02:34:24.365Z,96850.31
2018-12-21T02:36:50.236Z,96852.47
2018-12-21T02:39:16.102Z,96854.56
2018-12-21T02:41:41.965Z,96848.03
2018-12-21T02:44:07.941Z,96846.45
2018-12-21T02:46:33.910Z,96837.84
2018-12-21T02:48:59.762Z,96843.11
2018-12-21T02:51:25.645Z,96830.56
2018-12-21T02:53:51.481Z,96834.44
2018-12-21T02:56:17.317Z,96836.80
2018-12-21T02:58:43.177Z,96838.66
2018-12-21T03:01:09.047Z,96830.83
2018-12-21T03:03:34.941Z,96827.16
2018-12-21T03:06:00.773Z,96830.56
2018-12-21T03:08:26.608Z,96832.61
2018-12-21T03:10:52.566Z,96834.97
2018-12-21T03:13:18.416Z,96832.38
2018-12-21T03:15:44.281Z,96826.61
2018-12-21T03:18:10.141Z,96820.64
2018-12-21T03:20:35.990Z,96814.90
2018-12-21T03:23:01.910Z,96804.69
2018-12-21T03:25:27.902Z,96805.23
2018-12-21T03:27:53.753Z,96800.05
2018-12-21T03:30:19.627Z,96790.09
2018-12-21T03:32:45.472Z,96732.03
2018-12-21T03:35:11.428Z,96786.72
2018-12-21T03:37:37.278Z,96781.48
2018-12-21T03:40:04.666Z,96776.23
2018-12-21T03:42:30.520Z,96771.06
2018-12-21T03:44:56.354Z,96767.10
2018-12-21T03:47:22.179Z,96765.30
2018-12-21T03:49:48.047Z,96758.49
2018-12-21T03:52:13.912Z,96766.33
2018-12-21T03:54:39.790Z,96763.98
2018-12-21T03:57:05.682Z,96760.82
2018-12-21T03:59:31.527Z,96754.53
2018-12-21T04:04:37.594Z,96747.47
2018-12-21T04:07:03.546Z,96749.53
2018-12-21T04:09:29.397Z,96746.63
2018-12-21T04:11:55.265Z,96738.00
2018-12-21T04:14:21.121Z,96735.12
2018-12-21T04:16:46.982Z,96724.12
2018-12-21T04:19:12.854Z,96722.05
2018-12-21T04:21:38.890Z,96727.77
2018-12-21T04:24:04.850Z,96729.37
2018-12-21T04:26:30.831Z,96718.14
2018-12-21T04:28:56.684Z,96709.73
2018-12-21T04:31:22.522Z,96706.59
2018-12-21T04:33:48.374Z,96710.28
2018-12-21T04:36:14.210Z,96704.05
2018-12-21T04:38:40.083Z,96702.21
2018-12-21T04:41:05.964Z,96702.73
2018-12-21T04:43:31.808Z,96705.66
2018-12-21T04:45:57.662Z,96703.56
2018-12-21T04:48:23.502Z,96700.70
2018-12-21T04:50:49.340Z,96706.69
2018-12-21T04:53:15.457Z,96707.48
2018-12-21T04:55:41.305Z,96700.70
2018-12-21T04:58:07.196Z,96699.39
2018-12-21T05:00:33.041Z,96701.77
2018-12-21T05:02:58.913Z,96706.71
2018-12-21T05:05:24.781Z,96703.49
2018-12-21T05:07:50.650Z,96708.29
2018-12-21T05:10:16.525Z,96687.88
2018-12-21T05:12:42.374Z,96685.00
2018-12-21T05:15:08.689Z,96673.23
2018-12-21T05:17:34.577Z,96669.92
2018-12-21T05:20:00.441Z,96683.17
2018-12-21T05:22:26.286Z,96676.95
2018-12-21T05:24:52.165Z,96678.52
2018-12-21T05:27:18.170Z,96676.47
2018-12-21T05:29:44.043Z,96665.42
2018-12-21T05:32:09.917Z,96659.91
2018-12-21T05:34:35.797Z,96657.05
2018-12-21T05:37:01.738Z,96646.11
2018-12-21T05:39:27.602Z,96648.95
2018-12-21T05:41:53.456Z,96643.22
2018-12-21T05:44:19.457Z,96643.47
2018-12-21T05:46:45.345Z,96656.59
2018-12-21T05:49:11.191Z,96650.61
2018-12-21T05:51:37.181Z,96641.45
2018-12-21T05:54:03.318Z,96646.69
2018-12-21T05:56:29.190Z,96642.97
2018-12-21T05:58:55.037Z,96640.86
2018-12-21T06:01:20.885Z,96641.78
2018-12-21T06:03:46.753Z,96634.64
2018-12-21T06:06:12.632Z,96634.14
2018-12-21T06:08:38.472Z,96635.95
2018-12-21T06:11:04.331Z,96643.55
2018-12-21T06:13:30.229Z,96640.28
2018-12-21T06:15:56.097Z,96648.70
2018-12-21T06:18:21.994Z,96649.69
2018-12-21T06:20:47.905Z,96655.69
2018-12-21T06:23:13.771Z,96655.19
2018-12-21T06:25:39.631Z,96659.31
2018-12-21T06:28:05.502Z,96650.91
2018-12-21T06:30:31.347Z,96652.57
2018-12-21T06:32:57.249Z,96650.98
2018-12-21T06:35:23.217Z,96655.19
2018-12-21T06:37:49.078Z,96650.81
2018-12-21T06:40:14.919Z,96654.16
2018-12-21T06:42:40.766Z,96649.73
2018-12-21T06:45:06.741Z,96646.34
2018-12-21T06:47:32.602Z,96636.16
2018-12-21T06:49:58.462Z,96633.30
2018-12-21T06:52:24.332Z,96629.84
2018-12-21T06:54:50.282Z,96624.87
2018-12-21T06:57:16.142Z,96623.26
2018-12-21T06:59:42.026Z,96617.00
2018-12-21T07:02:07.934Z,96615.22
2018-12-21T07:04:33.822Z,96604.25
2018-12-21T07:06:59.674Z,96600.00
2018-12-21T07:09:25.631Z,96594.58
2018-12-21T07:11:51.471Z,96586.64
2018-12-21T07:14:17.338Z,96582.25
2018-12-21T07:16:43.211Z,96584.53
2018-12-21T07:19:09.058Z,96583.28
2018-12-21T07:21:35.050Z,96575.97
2018-12-21T07:24:00.898Z,96578.61
2018-12-21T07:26:26.771Z,96574.32
2018-12-21T07:28:52.631Z,96566.03
2018-12-21T07:31:18.527Z,96568.53
2018-12-21T07:33:44.357Z,96559.44
2018-12-21T07:36:10.219Z,96557.85
2018-12-21T07:38:36.075Z,96558.31
2018-12-21T07:41:01.938Z,96549.94
2018-12-21T07:43:27.793Z,96554.86
2018-12-21T07:45:53.632Z,96548.85
2018-12-21T07:48:19.501Z,96551.72
2018-12-21T07:50:45.355Z,96542.78
2018-12-21T07:53:11.205Z,96532.13
2018-12-21T07:55:37.065Z,96540.69
2018-12-21T07:58:02.957Z,96529.48
2018-12-21T08:00:28.794Z,96526.83
2018-12-21T08:02:54.651Z,96528.11
2018-12-21T08:05:20.531Z,96523.34
2018-12-21T08:07:46.433Z,96526.37
2018-12-21T08:10:13.043Z,96512.02
2018-12-21T08:12:38.917Z,96514.64
2018-12-21T08:15:04.871Z,96510.05
2018-12-21T08:17:30.739Z,96505.80
2018-12-21T08:19:56.615Z,96500.91
2018-12-21T08:22:22.438Z,96497.20
2018-12-21T08:24:48.287Z,96484.47
2018-12-21T08:27:14.166Z,96484.23
2018-12-21T08:29:40.027Z,96472.98
2018-12-21T08:32:05.907Z,96465.09
2018-12-21T08:34:31.790Z,96464.28
2018-12-21T08:36:57.642Z,96465.49
2018-12-21T08:39:23.546Z,96463.66
2018-12-21T08:41:49.390Z,96459.20
2018-12-21T08:44:15.357Z,96466.31
2018-12-21T08:46:41.174Z,96464.96
2018-12-21T08:49:07.101Z,96466.13
2018-12-21T08:51:33.077Z,96460.41
2018-12-21T08:53:58.936Z,96463.56
2018-12-21T08:56:24.942Z,96456.89
2018-12-21T08:58:50.778Z,96449.56
2018-12-21T09:01:16.874Z,96443.59
2018-12-21T09:03:42.919Z,96435.16
2018-12-21T09:06:08.798Z,96428.99
2018-12-21T09:08:34.640Z,96413.15
2018-12-21T09:11:00.649Z,96413.64
2018-12-21T09:13:26.607Z,96409.27
2018-12-21T09:15:52.458Z,96410.42
2018-12-21T09:18:18.319Z,96411.93
2018-12-21T09:20:44.199Z,96416.48
2018-12-21T09:23:10.066Z,96417.31
2018-12-21T09:25:35.973Z,96414.34
2018-12-21T09:28:01.814Z,96421.38
2018-12-21T09:30:27.777Z,96418.56
2018-12-21T09:32:54.119Z,96425.13
2018-12-21T09:35:20.001Z,96409.45
2018-12-21T09:37:45.826Z,96403.48
2018-12-21T09:40:11.794Z,96400.09
2018-12-21T09:42:37.706Z,96395.14
2018-12-21T09:45:03.814Z,96385.27
2018-12-21T09:47:29.683Z,96379.20
2018-12-21T09:49:55.606Z,96372.75
2018-12-21T09:52:21.502Z,96364.98
2018-12-21T09:54:47.353Z,96360.30
2018-12-21T09:57:13.257Z,96348.66
2018-12-21T09:59:39.130Z,96348.80
2018-12-21T10:02:05.180Z,96344.73
2018-12-21T10:04:31.007Z,96336.02
2018-12-21T10:06:56.885Z,96322.36
2018-12-21T10:09:22.754Z,96315.81
2018-12-21T10:11:48.625Z,96316.16
2018-12-21T10:14:14.511Z,96307.28
2018-12-21T10:16:40.401Z,96300.45
2018-12-21T10:19:06.418Z,96300.92
2018-12-21T10:21:32.406Z,96301.70
2018-12-21T10:23:58.299Z,96293.33
2018-12-21T10:26:24.549Z,96280.23
2018-12-21T10:28:50.523Z,96275.39
2018-12-21T10:31:16.526Z,96272.33
2018-12-21T10:33:42.413Z,96270.20
2018-12-21T10:36:08.274Z,96261.72
2018-12-21T10:38:37.013Z,96251.78
2018-12-21T10:41:02.896Z,96249.39
2018-12-21T10:43:28.766Z,96239.84
2018-12-21T10:45:54.637Z,96234.19
2018-12-21T10:48:20.650Z,96220.94
2018-12-21T10:50:46.490Z,96216.16
2018-12-21T10:53:12.451Z,96200.73
2018-12-21T10:55:38.305Z,96193.25
2018-12-21T10:58:04.142Z,96191.16
2018-12-21T11:00:30.033Z,96184.89
2018-12-21T11:02:55.878Z,96193.15
2018-12-21T11:05:21.847Z,96192.20
2018-12-21T11:07:47.674Z,96170.41
2018-12-21T11:10:13.522Z,96152.53
2018-12-21T11:12:39.390Z,96154.34
2018-12-21T11:15:05.382Z,96151.66
2018-12-21T11:17:31.310Z,96141.89
2018-12-21T11:19:57.169Z,96135.34
2018-12-21T11:22:23.059Z,96124.02
2018-12-21T11:24:48.909Z,96122.41
2018-12-21T11:27:14.849Z,96113.00
2018-12-21T11:29:40.708Z,96109.78
2018-12-21T11:32:06.638Z,96096.27
2018-12-21T11:34:32.470Z,96090.42
2018-12-21T11:36:58.321Z,96091.37
2018-12-21T11:39:31.224Z,96094.19
2018-12-21T11:41:57.084Z,96103.30
2018-12-21T11:44:22.947Z,96082.02
2018-12-21T11:46:49.817Z,96075.94
2018-12-21T11:49:15.683Z,96073.78
2018-12-21T11:51:41.602Z,96066.12
2018-12-21T11:54:07.524Z,96061.91
2018-12-21T11:56:33.615Z,96057.48
2018-12-21T11:58:59.477Z,96054.48
2018-12-21T12:01:25.351Z,96045.91
2018-12-21T12:03:51.220Z,96044.59
2018-12-21T12:06:17.112Z,96041.24
2018-12-21T12:08:42.990Z,96039.16
2018-12-21T12:11:08.882Z,96029.44
2018-12-21T12:13:34.801Z,96022.34
2018-12-21T12:16:00.694Z,96011.77
2018-12-21T12:18:26.554Z,96002.89
2018-12-21T12:20:52.453Z,95984.91
2018-12-21T12:23:18.340Z,95981.22
2018-12-21T12:32:37.363Z,95969.60
2018-12-21T12:35:04.338Z,95958.81
2018-12-21T12:37:30.319Z,95944.70
2018-12-21T12:39:56.186Z,95950.41
2018-12-21T12:42:22.065Z,95957.39
2018-12-21T12:44:48.212Z,95953.38
2018-12-21T12:47:14.074Z,95965.25
2018-12-21T12:49:40.093Z,95961.48
2018-12-21T12:52:06.033Z,95961.17
2018-12-21T12:54:31.869Z,95949.38
2018-12-21T12:57:04.815Z,95865.22
2018-12-21T12:59:30.802Z,95944.91
2018-12-21T13:01:58.495Z,95940.74
2018-12-21T13:04:24.566Z,95932.03
2018-12-21T13:06:50.466Z,95919.69
2018-12-21T13:09:16.423Z,95925.94
2018-12-21T13:11:42.330Z,95915.61
2018-12-21T13:14:08.421Z,95904.53
2018-12-21T13:16:34.309Z,95901.37
2018-12-21T13:19:00.156Z,95897.80
2018-12-21T13:21:26.059Z,95901.37
2018-12-21T13:23:51.942Z,95909.24
2018-12-21T13:26:17.830Z,95886.18
2018-12-21T13:28:44.582Z,95889.73
2018-12-21T13:31:10.483Z,95894.97
2018-12-21T13:33:36.528Z,95881.48
2018-12-21T13:36:02.411Z,95890.04
2018-12-21T13:38:28.246Z,95887.60
2018-12-21T13:40:54.421Z,95883.20
2018-12-21T13:43:20.328Z,95897.81
2018-12-21T13:45:46.191Z,95895.37
2018-12-21T13:48:12.030Z,95883.88
2018-12-21T13:50:37.906Z,95893.20
2018-12-21T13:53:03.808Z,95886.88
2018-12-21T13:55:29.853Z,95888.19
2018-12-21T13:57:55.699Z,95884.17
2018-12-21T14:00:21.537Z,95884.09
2018-12-21T14:02:47.433Z,95887.13
2018-12-21T14:05:13.407Z,95891.76
2018-12-21T14:07:39.312Z,95902.48
2018-12-21T14:10:08.439Z,95895.77
2018-12-21T14:12:34.379Z,95898.55
2018-12-21T14:15:00.271Z,95893.22
2018-12-21T14:17:26.263Z,95884.89
2018-12-21T14:19:52.145Z,95903.27
2018-12-21T14:22:18.022Z,95898.41
2018-12-21T14:24:43.973Z,95898.19
2018-12-21T14:27:09.829Z,95905.34
2018-12-21T14:29:35.837Z,95906.67
2018-12-21T14:32:01.699Z,95907.44
2018-12-21T14:34:27.578Z,95907.77
2018-12-21T14:36:53.455Z,95904.20
2018-12-21T14:39:19.326Z,95894.01
2018-12-21T14:41:45.218Z,95897.69
2018-12-21T14:44:11.090Z,95900.81
2018-12-21T14:46:37.014Z,95900.09
2018-12-21T14:49:03.015Z,95898.32
2018-12-21T14:51:29.009Z,95900.27
2018-12-21T14:53:54.946Z,95880.50
2018-12-21T14:56:20.840Z,95898.95
2018-12-21T14:58:46.691Z,95904.12
2018-12-21T15:01:12.668Z,95897.55
2018-12-21T15:03:38.699Z,95900.49
2018-12-21T15:06:04.588Z,95907.34
2018-12-21T15:08:30.442Z,95896.61
2018-12-21T15:10:56.337Z,95896.78
2018-12-21T15:13:22.205Z,95900.49
2018-12-21T15:15:48.129Z,95901.09
2018-12-21T15:18:14.036Z,95902.72
2018-12-21T15:20:39.919Z,95900.33
2018-12-21T15:23:05.819Z,95903.41
2018-12-21T15:25:31.851Z,95901.55
2018-12-21T15:27:57.732Z,95895.84
2018-12-21T15:30:23.711Z,95901.55
2018-12-21T15:32:49.629Z,95899.47
2018-12-21T15:35:15.606Z,95886.65
2018-12-21T15:37:41.518Z,95897.02
2018-12-21T15:40:07.408Z,95895.53
2018-12-21T15:42:33.375Z,95893.44
2018-12-21T15:44:59.262Z,95888.24
2018-12-21T15:47:25.154Z,95884.02
2018-12-21T15:49:51.038Z,95881.58
2018-12-21T15:52:16.910Z,95871.05
2018-12-21T15:54:42.794Z,95880.16
2018-12-21T15:57:08.658Z,95874.18
2018-12-21T15:59:34.538Z,95888.75
2018-12-21T16:02:00.443Z,95880.48
2018-12-21T16:04:26.414Z,95874.36
2018-12-21T16:06:52.315Z,95869.47
2018-12-21T16:09:18.228Z,95877.03
2018-12-21T16:11:44.062Z,95872.39
2018-12-21T16:14:10.260Z,95870.98
2018-12-21T16:16:36.419Z,95878.33
2018-12-21T16:19:02.307Z,95883.72
2018-12-21T16:21:28.179Z,95874.03
2018-12-21T16:23:54.066Z,95863.95
2018-12-21T16:26:19.936Z,95875.60
2018-12-21T16:28:45.818Z,95867.07
2018-12-21T16:31:11.742Z,95863.28
2018-12-21T16:33:37.630Z,95878.42
2018-12-21T16:36:03.506Z,95877.23
2018-12-21T16:38:31.801Z,95883.36
2018-12-21T16:40:57.698Z,95877.78
2018-12-21T16:43:23.657Z,95880.95
2018-12-21T16:45:49.546Z,95882.63
2018-12-21T16:48:15.415Z,95880.38
2018-12-21T16:50:41.351Z,95885.44
2018-12-21T16:53:07.342Z,95894.16
2018-12-21T16:55:33.236Z,95890.66
2018-12-21T16:57:59.254Z,95892.87
2018-12-21T17:00:25.155Z,95883.72
2018-12-21T17:02:58.083Z,95889.59
2018-12-21T17:05:24.031Z,95890.59
2018-12-21T17:07:49.922Z,95885.28
2018-12-21T17:10:15.785Z,95882.44
2018-12-21T17:12:41.704Z,95897.57
2018-12-21T17:15:08.820Z,95891.86
2018-12-21T17:17:34.692Z,95898.66
2018-12-21T17:20:00.571Z,95899.21
2018-12-21T17:22:26.428Z,95899.75
2018-12-21T17:24:52.290Z,95898.98
2018-12-21T17:27:18.215Z,95895.53
2018-12-21T17:29:44.103Z,95895.02
2018-12-21T17:32:09.978Z,95902.41
2018-12-21T17:34:35.906Z,95903.80
2018-12-21T17:37:01.815Z,95910.38
2018-12-21T17:39:27.712Z,95911.62
2018-12-21T17:41:53.660Z,95916.95
2018-12-21T17:44:19.598Z,95911.45
2018-12-21T17:46:45.603Z,95917.39
2018-12-21T17:49:11.559Z,95913.70
2018-12-21T17:51:38.526Z,95917.34
2018-12-21T17:54:04.893Z,95911.91
2018-12-21T17:56:30.930Z,95910.38
2018-12-21T17:58:56.805Z,95902.02
2018-12-21T18:01:23.059Z,95904.56
2018-12-21T18:03:50.855Z,95912.36
2018-12-21T18:06:16.832Z,95914.00
2018-12-21T18:08:42.823Z,95930.58
2018-12-21T18:11:08.691Z,95927.55
2018-12-21T18:13:34.571Z,95931.06
2018-12-21T18:16:00.458Z,95927.27
2018-12-21T18:18:26.354Z,95933.94
2018-12-21T18:20:52.233Z,95940.30
2018-12-21T18:23:18.117Z,95950.77
2018-12-21T18:25:44.905Z,95954.03
2018-12-21T18:28:14.325Z,95949.30
2018-12-21T18:30:40.320Z,95949.53
2018-12-21T18:33:10.461Z,95960.98
2018-12-21T18:35:34.118Z,95943.70
2018-12-21T18:38:00.059Z,95950.88
2018-12-21T18:40:25.923Z,95951.99
2018-12-21T18:42:51.829Z,95951.55
2018-12-21T18:45:17.702Z,95961.98
2018-12-21T18:47:43.638Z,95950.94
2018-12-21T18:50:10.241Z,95952.70
2018-12-21T18:52:36.129Z,95951.93
2018-12-21T18:55:05.034Z,95951.75
2018-12-21T18:57:30.907Z,95951.52
2018-12-21T18:59:56.790Z,95955.56
2018-12-21T19:02:22.826Z,95948.97
2018-12-21T19:04:48.692Z,95941.60
2018-12-21T19:07:14.608Z,95966.11
2018-12-21T19:09:40.514Z,95958.34
2018-12-21T19:12:06.373Z,95949.44
2018-12-21T19:14:32.311Z,95949.47
2018-12-21T19:16:58.269Z,95954.75
2018-12-21T19:19:24.149Z,95943.65
2018-12-21T19:21:50.196Z,95943.54
2018-12-21T19:24:16.091Z,95944.86
2018-12-21T19:26:42.059Z,95933.20
2018-12-21T19:29:07.943Z,95946.61
2018-12-21T19:31:33.977Z,95950.38
2018-12-21T19:34:00.168Z,95952.80
2018-12-21T19:36:26.075Z,95938.29
2018-12-21T19:38:52.093Z,95958.48
2018-12-21T19:41:18.089Z,95961.34
2018-12-21T19:43:44.060Z,95953.23
2018-12-21T19:46:10.086Z,95955.66
2018-12-21T19:48:36.005Z,95947.52
2018-12-21T19:51:01.890Z,95963.98
2018-12-21T19:53:27.785Z,95953.02
2018-12-21T19:55:53.904Z,95962.80
2018-12-21T19:58:19.870Z,95963.24
2018-12-21T20:00:45.779Z,95968.73
2018-12-21T20:03:11.774Z,95973.36
2018-12-21T20:05:37.752Z,95971.92
2018-12-21T20:08:03.703Z,95978.20
2018-12-21T20:10:29.583Z,95981.05
2018-12-21T20:12:55.447Z,95974.67
2018-12-21T20:15:21.485Z,95978.22
2018-12-21T20:17:54.505Z,95985.89
2018-12-21T20:20:20.415Z,95977.31
2018-12-21T20:22:46.418Z,95983.03
2018-12-21T20:25:12.353Z,95980.94
2018-12-21T20:27:38.351Z,95981.38
2018-12-21T20:30:07.499Z,95971.70
2018-12-21T20:32:33.400Z,95972.70
2018-12-21T20:34:59.505Z,95972.83
2018-12-21T20:37:25.392Z,95973.13
2018-12-21T20:39:51.301Z,95979.19
2018-12-21T20:42:17.200Z,95983.47
2018-12-21T20:44:50.077Z,95991.09
2018-12-21T20:47:16.395Z,95986.58
2018-12-21T20:49:42.251Z,95992.08
2018-12-21T20:52:08.115Z,95994.83
2018-12-21T20:54:33.982Z,95991.09
2018-12-21T20:56:59.876Z,95985.80
2018-12-21T20:59:25.786Z,95992.08
2018-12-21T21:01:51.698Z,95987.56
2018-12-21T21:04:17.648Z,95996.06
2018-12-21T21:06:43.530Z,95995.18
2018-12-21T21:09:09.606Z,95990.87
2018-12-21T21:11:35.442Z,95991.08
2018-12-21T21:14:01.339Z,95989.68
2018-12-21T21:16:27.220Z,95997.80
2018-12-21T21:18:53.063Z,95993.53
2018-12-21T21:21:18.925Z,96008.27
2018-12-21T21:23:44.779Z,95999.92
2018-12-21T21:26:10.638Z,96008.81
2018-12-21T21:28:36.519Z,96010.90
2018-12-21T21:31:02.682Z,96003.53
2018-12-21T21:33:28.563Z,96000.70
2018-12-21T21:35:54.453Z,96017.83
2018-12-21T21:38:20.293Z,96015.94
2018-12-21T21:40:46.157Z,96023.66
2018-12-21T21:43:12.013Z,96023.00
2018-12-21T21:45:37.969Z,96024.10
2018-12-21T21:48:03.858Z,96034.63
2018-12-21T21:50:29.778Z,96031.36
2018-12-21T21:52:55.664Z,96037.85
2018-12-21T21:55:21.542Z,96033.23
2018-12-21T21:57:47.541Z,96033.89
2018-12-21T22:00:13.598Z,96040.08
2018-12-21T22:02:39.585Z,96033.03
2018-12-21T22:05:05.665Z,96031.92
2018-12-21T22:07:31.545Z,96033.91
2018-12-21T22:09:57.429Z,96048.88
2018-12-21T22:12:23.306Z,96047.36
2018-12-21T22:14:49.186Z,96033.05
2018-12-21T22:17:15.027Z,96032.61
2018-12-21T22:19:40.919Z,96045.59
2018-12-21T22:22:06.759Z,96049.67
2018-12-21T22:24:32.683Z,96041.86
2018-12-21T22:26:58.746Z,96041.53
2018-12-21T22:29:24.832Z,96051.54
2018-12-21T22:31:50.714Z,96055.72
2018-12-21T22:34:16.617Z,96071.48
2018-12-21T22:36:42.638Z,96057.70
2018-12-21T22:39:08.524Z,96052.86
2018-12-21T22:41:34.364Z,96051.11
2018-12-21T22:44:00.215Z,96051.34
2018-12-21T22:46:26.171Z,96057.73
2018-12-21T22:48:59.107Z,96042.85
2018-12-21T22:51:24.932Z,96037.39
2018-12-21T22:53:50.903Z,96052.67
2018-12-21T22:56:16.924Z,96038.44
2018-12-21T22:58:42.850Z,96050.78
2018-12-21T23:01:08.874Z,96046.61
2018-12-21T23:03:34.788Z,96046.81
2018-12-21T23:06:00.694Z,96035.38
2018-12-21T23:08:26.594Z,96040.33
2018-12-21T23:10:52.443Z,96054.30
2018-12-21T23:13:18.456Z,96053.64
2018-12-21T23:15:44.336Z,96046.80
2018-12-21T23:18:10.204Z,96048.13
2018-12-21T23:20:36.108Z,96051.43
2018-12-21T23:23:02.018Z,96049.56
2018-12-21T23:25:27.855Z,96047.47
2018-12-21T23:27:53.691Z,96042.30
2018-12-21T23:30:19.551Z,96052.75
2018-12-21T23:32:45.421Z,96051.32
2018-12-21T23:35:11.290Z,96045.58
2018-12-21T23:37:37.113Z,96046.20
2018-12-21T23:40:04.687Z,96045.44
2018-12-21T23:42:30.538Z,96047.56
2018-12-21T23:44:56.478Z,96035.34
2018-12-21T23:47:22.356Z,96054.16
2018-12-21T23:49:48.182Z,96053.69
2018-12-21T23:52:14.054Z,96052.39
2018-12-21T23:54:39.927Z,96049.75
2018-12-21T23:57:05.761Z,96052.20
2018-12-21T23:59:31.641Z,96063.95
